Time;durP1;ratioP1;P1;durP2;ratioP2;P2;SDS_P1;SDS_P2;PMS_P1;PMS_P2;Temp;Humidity;BMP_temperature;BMP_pressure;BME280_temperature;BME280_humidity;BME280_pressure;Samples;Min_cycle;Max_cycle;Signal;HPM_P1;HPM_P2
2021/11/21 00:01:22;;;;;;;62.00;33.20;;;;;;;4.10;88.71;97660.84;107977;1274;69568;-67
2021/11/21 00:03:52;;;;;;;67.20;34.40;;;;;;;4.12;88.84;97656.64;107921;1275;59736;-67
2021/11/21 00:06:22;;;;;;;72.30;33.90;;;;;;;4.13;88.62;97654.19;107793;1275;59733;-68
2021/11/21 00:08:52;;;;;;;74.20;35.80;;;;;;;4.12;88.40;97645.95;108003;1272;71613;-68
2021/11/21 00:11:22;;;;;;;76.80;38.80;;;;;;;4.08;88.23;97641.09;108071;1272;68703;-67
2021/11/21 00:13:52;;;;;;;60.50;30.90;;;;;;;4.03;88.36;97636.30;108092;1272;68555;-68
2021/11/21 00:16:21;;;;;;;129.10;42.60;;;;;;;4.02;88.43;97637.57;107943;1274;59730;-68
2021/11/21 00:18:50;;;;;;;100.70;40.10;;;;;;;3.99;88.25;97639.40;108097;1271;59691;-67
2021/11/21 00:21:20;;;;;;;53.00;29.00;;;;;;;3.94;88.43;97639.61;107938;1272;71456;-68
2021/11/21 00:23:49;;;;;;;142.90;43.00;;;;;;;3.91;88.66;97634.04;108056;1272;67869;-68
2021/11/21 00:26:19;;;;;;;63.90;32.10;;;;;;;3.88;88.50;97629.36;108043;1272;69456;-68
2021/11/21 00:28:50;;;;;;;42.60;22.10;;;;;;;3.87;88.71;97634.25;107787;1275;59717;-68
2021/11/21 00:31:21;;;;;;;38.80;22.20;;;;;;;3.90;88.89;97638.78;108094;1271;59704;-67
2021/11/21 00:33:50;;;;;;;47.50;25.40;;;;;;;3.94;89.02;97637.71;108093;1272;71592;-68
2021/11/21 00:36:20;;;;;;;42.50;26.30;;;;;;;3.97;89.00;97634.50;107998;1272;67927;-68
2021/11/21 00:38:49;;;;;;;55.90;25.30;;;;;;;3.99;88.81;97627.35;108020;1270;69583;-68
2021/11/21 00:41:18;;;;;;;34.20;19.60;;;;;;;4.01;88.93;97628.96;107993;1271;59744;-67
2021/11/21 00:43:47;;;;;;;35.10;20.80;;;;;;;4.03;89.04;97630.60;108041;1274;59698;-67
2021/11/21 00:46:17;;;;;;;26.90;17.20;;;;;;;4.05;89.04;97628.42;108005;1272;71583;-68
2021/11/21 00:48:47;;;;;;;44.90;26.00;;;;;;;4.07;88.85;97625.77;108081;1272;68768;-67
2021/11/21 00:51:18;;;;;;;;;;;;;;;4.09;88.75;97629.32;108108;1274;69273;-67
2021/11/21 00:53:52;;;;;;;46.80;28.40;;;;;;;4.07;88.46;97626.11;107962;1267;59757;-67
2021/11/21 00:56:21;;;;;;;42.30;25.70;;;;;;;4.07;88.53;97619.58;107789;1275;59740;-67
2021/11/21 00:58:51;;;;;;;50.60;28.10;;;;;;;4.07;88.60;97610.77;108054;1271;71582;-68
2021/11/21 01:01:20;;;;;;;48.50;23.90;;;;;;;4.06;88.37;97608.89;108014;1272;68633;-68
2021/11/21 01:03:50;;;;;;;118.90;34.80;;;;;;;4.06;88.46;97605.13;107930;1272;69516;-68
2021/11/21 01:06:19;;;;;;;78.20;29.50;;;;;;;4.04;88.44;97597.13;108023;1272;59710;-68
2021/11/21 01:08:48;;;;;;;68.80;28.50;;;;;;;4.02;88.56;97588.91;108066;1272;59660;-67
2021/11/21 01:11:18;;;;;;;53.90;28.80;;;;;;;4.02;88.50;97583.04;108021;1272;71613;-67
2021/11/21 01:13:47;;;;;;;71.90;27.60;;;;;;;4.03;88.59;97574.73;108044;1272;67905;-67
2021/11/21 01:16:17;;;;;;;50.80;22.90;;;;;;;4.05;88.65;97572.06;108020;1272;67481;-68
2021/11/21 01:18:46;;;;;;;28.40;14.90;;;;;;;4.07;88.79;97574.23;107991;1275;59770;-68
2021/11/21 01:21:15;;;;;;;32.90;18.40;;;;;;;4.07;89.16;97573.34;108051;1272;59754;-68
2021/11/21 01:23:45;;;;;;;37.90;20.40;;;;;;;4.08;88.92;97576.41;108060;1271;71729;-67
2021/11/21 01:26:15;;;;;;;50.40;22.90;;;;;;;4.08;88.87;97579.15;108114;1272;68672;-67
2021/11/21 01:28:45;;;;;;;21.30;11.70;;;;;;;4.10;88.91;97579.95;108040;1272;69458;-67
2021/11/21 01:31:14;;;;;;;25.20;15.70;;;;;;;4.13;88.97;97577.08;108064;1272;59760;-68
2021/11/21 01:33:44;;;;;;;31.80;19.20;;;;;;;4.15;89.05;97576.83;108014;1271;59656;-68
2021/11/21 01:36:15;;;;;;;41.40;20.30;;;;;;;4.14;89.26;97573.89;108079;1272;70557;-68
2021/11/21 01:38:45;;;;;;;25.60;16.20;;;;;;;4.16;89.34;97579.70;108004;1273;67908;-68
2021/11/21 01:41:15;;;;;;;25.70;15.80;;;;;;;4.16;89.10;97580.02;108052;1272;69455;-67
2021/11/21 01:43:44;;;;;;;;;;;;;;;4.16;89.17;97579.02;108043;1272;59759;-68
2021/11/21 01:46:14;;;;;;;19.20;11.80;;;;;;;4.14;89.27;97574.45;108031;1274;59725;-68
2021/11/21 01:48:43;;;;;;;21.30;12.50;;;;;;;4.12;89.26;97573.82;108072;1272;72177;-67
2021/11/21 01:51:13;;;;;;;47.80;20.80;;;;;;;4.11;89.25;97571.27;107965;1272;68582;-68
2021/11/21 01:53:42;;;;;;;75.30;26.30;;;;;;;4.10;88.91;97571.33;107988;1274;68623;-68
2021/11/21 01:56:12;;;;;;;71.40;26.80;;;;;;;4.08;88.88;97570.55;108078;1270;59754;-67
2021/11/21 01:58:41;;;;;;;25.60;14.50;;;;;;;4.06;88.75;97570.98;107785;1274;59748;-67
2021/11/21 02:01:11;;;;;;;14.10;10.30;;;;;;;4.05;88.83;97571.88;108088;1272;71574;-67
2021/11/21 02:03:41;;;;;;;58.30;25.80;;;;;;;4.04;88.85;97571.05;107994;1270;67839;-67
2021/11/21 02:06:11;;;;;;;41.70;20.20;;;;;;;4.03;88.94;97568.35;107996;1272;69424;-68
2021/11/21 02:08:41;;;;;;;22.60;13.60;;;;;;;4.04;89.21;97569.36;108005;1271;59808;-67
2021/11/21 02:11:11;;;;;;;18.40;12.60;;;;;;;4.04;89.15;97568.30;108015;1274;59767;-67
2021/11/21 02:13:40;;;;;;;24.20;13.00;;;;;;;4.05;88.88;97566.89;108028;1271;70761;-67
2021/11/21 02:16:12;;;;;;;30.60;17.30;;;;;;;4.04;88.74;97568.63;107975;1275;68437;-67
2021/11/21 02:18:45;;;;;;;27.10;17.00;;;;;;;4.04;88.84;97572.45;107997;1271;69371;-67
2021/11/21 02:21:18;;;;;;;35.10;19.60;;;;;;;4.05;88.85;97571.52;108001;1274;59800;-69
2021/11/21 02:23:49;;;;;;;29.30;16.40;;;;;;;4.05;88.77;97567.38;108054;1271;60162;-67
2021/11/21 02:26:20;;;;;;;32.80;17.90;;;;;;;4.05;88.75;97562.21;108035;1274;71554;-68
2021/11/21 02:28:54;;;;;;;31.40;17.20;;;;;;;4.06;88.70;97559.08;108026;1272;67850;-68
2021/11/21 02:31:24;;;;;;;48.20;22.50;;;;;;;4.05;88.72;97552.90;108074;1272;68332;-67
2021/11/21 02:33:54;;;;;;;48.30;18.70;;;;;;;4.03;88.63;97547.83;107879;1271;59692;-67
2021/11/21 02:36:25;;;;;;;37.30;18.80;;;;;;;4.04;88.74;97549.86;108029;1272;59729;-67
2021/11/21 02:38:54;;;;;;;36.80;19.10;;;;;;;4.05;88.76;97549.99;108055;1272;71411;-67
2021/11/21 02:41:24;;;;;;;31.10;16.70;;;;;;;4.05;88.81;97549.27;108001;1274;66943;-68
2021/11/21 02:43:54;;;;;;;33.10;16.40;;;;;;;4.07;88.82;97552.14;108002;1275;68457;-68
2021/11/21 02:46:24;;;;;;;32.20;18.10;;;;;;;4.08;88.79;97550.54;108167;1271;59735;-68
2021/11/21 02:48:56;;;;;;;28.60;16.50;;;;;;;4.09;88.81;97551.70;108068;1274;59714;-69
2021/11/21 02:51:25;;;;;;;42.00;19.40;;;;;;;4.10;88.75;97552.36;108117;1272;71957;-67
2021/11/21 02:53:55;;;;;;;23.60;13.60;;;;;;;4.11;88.83;97552.33;108036;1275;68601;-68
2021/11/21 02:56:27;;;;;;;40.00;20.60;;;;;;;4.12;88.99;97546.08;108046;1272;68621;-67
2021/11/21 02:58:57;;;;;;;44.30;21.30;;;;;;;4.11;88.87;97542.30;107943;1272;59750;-67
2021/11/21 03:01:28;;;;;;;24.10;15.00;;;;;;;4.12;88.92;97545.92;108068;1271;59739;-67
2021/11/21 03:03:59;;;;;;;40.30;25.60;;;;;;;4.11;88.82;97550.94;108025;1272;70762;-68
2021/11/21 03:06:29;;;;;;;22.50;14.30;;;;;;;4.07;88.58;97546.95;108085;1271;68553;-67
2021/11/21 03:08:58;;;;;;;19.90;12.40;;;;;;;4.06;88.61;97549.59;107948;1272;69249;-68
2021/11/21 03:11:33;;;;;;;35.60;22.00;;;;;;;4.05;88.57;97546.85;107972;1272;59867;-67
2021/11/21 03:14:05;;;;;;;34.70;22.10;;;;;;;4.04;88.37;97547.63;108070;1271;59764;-68
2021/11/21 03:16:35;;;;;;;30.40;21.10;;;;;;;4.02;88.21;97545.63;108108;1272;70745;-67
2021/11/21 03:19:05;;;;;;;26.10;18.50;;;;;;;4.01;88.17;97545.48;108076;1272;67526;-67
2021/11/21 03:21:34;;;;;;;28.00;17.20;;;;;;;4.01;88.14;97542.20;108111;1272;67675;-68
2021/11/21 03:24:04;;;;;;;32.90;21.10;;;;;;;4.02;88.05;97542.88;108103;1272;60482;-67
2021/11/21 03:26:34;;;;;;;24.40;17.30;;;;;;;4.00;87.96;97538.48;108046;1272;59697;-68
2021/11/21 03:29:05;;;;;;;25.60;16.20;;;;;;;3.99;88.08;97535.24;107952;1271;70987;-67
2021/11/21 03:31:35;;;;;;;26.20;14.80;;;;;;;4.00;88.02;97532.27;107949;1274;68659;-68
2021/11/21 03:34:05;;;;;;;29.10;18.60;;;;;;;4.00;88.01;97533.13;107987;1272;68660;-68
2021/11/21 03:36:37;;;;;;;36.80;22.00;;;;;;;4.00;87.99;97533.64;108070;1272;59768;-68
2021/11/21 03:39:08;;;;;;;37.20;23.20;;;;;;;3.98;87.77;97523.75;108078;1272;59693;-67
2021/11/21 03:41:38;;;;;;;28.60;18.30;;;;;;;3.96;87.84;97519.66;108053;1274;71622;-67
2021/11/21 03:44:09;;;;;;;36.00;22.10;;;;;;;3.96;87.84;97506.25;108027;1274;68604;-67
2021/11/21 03:46:39;;;;;;;;;;;;;;;3.92;87.67;97500.23;108012;1272;68438;-68
2021/11/21 03:49:08;;;;;;;28.10;18.30;;;;;;;3.85;87.73;97501.23;108028;1272;59702;-68
2021/11/21 03:51:38;;;;;;;29.00;19.60;;;;;;;3.82;87.86;97496.66;108008;1272;59713;-68
2021/11/21 03:54:08;;;;;;;31.50;20.60;;;;;;;3.82;87.91;97495.46;108031;1272;70595;-69
2021/11/21 03:56:37;;;;;;;27.70;18.20;;;;;;;3.83;87.78;97497.50;108062;1272;67975;-67
2021/11/21 03:59:08;;;;;;;19.20;12.50;;;;;;;3.84;87.86;97495.57;107892;1276;69430;-68
2021/11/21 04:01:38;;;;;;;31.30;20.70;;;;;;;3.87;87.62;97490.64;108078;1272;59776;-67
2021/11/21 04:04:10;;;;;;;30.10;20.70;;;;;;;3.87;87.78;97494.22;108011;1274;59709;-69
2021/11/21 04:06:39;;;;;;;39.80;23.10;;;;;;;3.89;87.91;97489.34;107970;1272;70834;-67
2021/11/21 04:09:09;;;;;;;45.10;22.50;;;;;;;3.89;87.98;97487.27;108041;1272;68377;-68
2021/11/21 04:11:39;;;;;;;64.20;21.70;;;;;;;3.89;87.90;97484.84;108049;1272;68424;-67
2021/11/21 04:14:09;;;;;;;52.50;18.90;;;;;;;3.89;87.85;97477.27;108031;1274;59767;-67
2021/11/21 04:16:40;;;;;;;74.80;29.40;;;;;;;3.89;87.94;97473.66;108065;1272;59718;-66
2021/11/21 04:19:10;;;;;;;80.60;30.00;;;;;;;3.88;87.69;97471.61;107996;1272;70749;-67
2021/11/21 04:21:40;;;;;;;24.80;15.10;;;;;;;3.87;87.76;97468.39;108084;1272;68635;-66
2021/11/21 04:24:13;;;;;;;35.40;21.10;;;;;;;3.86;88.00;97467.38;107991;1272;69237;-66
2021/11/21 04:26:43;;;;;;;26.60;15.10;;;;;;;3.85;88.08;97470.20;108031;1271;59773;-67
2021/11/21 04:29:13;;;;;;;30.80;17.90;;;;;;;3.86;88.00;97471.71;107975;1272;59722;-66
2021/11/21 04:31:42;;;;;;;39.20;23.30;;;;;;;3.82;87.84;97468.22;107841;1272;70732;-66
2021/11/21 04:34:11;;;;;;;21.60;13.40;;;;;;;3.82;88.01;97457.20;108035;1272;67787;-66
2021/11/21 04:36:40;;;;;;;24.90;14.70;;;;;;;3.82;87.93;97454.27;108028;1272;69462;-66
2021/11/21 04:39:10;;;;;;;23.40;16.00;;;;;;;3.81;88.01;97445.02;108062;1272;59737;-67
2021/11/21 04:41:40;;;;;;;38.70;21.20;;;;;;;3.80;87.99;97441.09;108005;1275;59710;-65
2021/11/21 04:44:09;;;;;;;72.10;23.60;;;;;;;3.79;88.15;97435.98;107981;1276;72296;-65
2021/11/21 04:46:38;;;;;;;47.80;20.20;;;;;;;3.76;88.07;97433.70;108042;1274;68617;-66
2021/11/21 04:49:07;;;;;;;36.80;15.60;;;;;;;3.72;88.06;97431.45;108049;1272;69457;-66
2021/11/21 04:51:36;;;;;;;26.20;14.00;;;;;;;3.69;88.10;97426.96;107963;1271;59736;-66
2021/11/21 04:54:12;;;;;;;97.70;27.10;;;;;;;3.67;88.44;97428.94;107972;1274;59732;-66
2021/11/21 04:56:42;;;;;;;31.90;17.40;;;;;;;3.66;88.25;97432.27;108052;1272;71661;-67
2021/11/21 04:59:15;;;;;;;31.10;15.20;;;;;;;3.66;88.58;97436.91;108057;1272;68664;-67
2021/11/21 05:01:45;;;;;;;21.60;12.00;;;;;;;3.68;88.90;97433.73;108006;1275;68593;-67
2021/11/21 05:04:14;;;;;;;21.10;12.90;;;;;;;3.70;89.01;97436.37;107979;1271;60196;-66
2021/11/21 05:06:44;;;;;;;20.90;12.90;;;;;;;3.71;89.07;97441.15;107997;1272;59666;-68
2021/11/21 05:09:13;;;;;;;26.90;15.40;;;;;;;3.70;89.13;97444.13;108006;1272;70774;-66
2021/11/21 05:11:42;;;;;;;24.40;12.10;;;;;;;3.70;89.11;97441.91;108008;1275;68656;-67
2021/11/21 05:14:17;;;;;;;36.10;16.90;;;;;;;3.68;89.23;97442.48;107963;1274;68520;-66
2021/11/21 05:16:48;;;;;;;43.10;17.70;;;;;;;3.67;89.10;97446.69;108035;1275;59816;-67
2021/11/21 05:19:17;;;;;;;85.70;23.30;;;;;;;3.67;88.95;97441.50;108048;1275;59786;-67
2021/11/21 05:21:46;;;;;;;24.60;10.90;;;;;;;3.66;88.82;97432.25;108025;1272;71607;-67
2021/11/21 05:24:23;;;;;;;29.60;15.70;;;;;;;3.66;88.79;97426.08;108008;1275;68141;-67
2021/11/21 05:26:52;;;;;;;55.50;20.00;;;;;;;3.65;88.82;97423.17;107965;1272;69440;-68
2021/11/21 05:29:22;;;;;;;33.80;16.70;;;;;;;3.64;88.78;97425.60;107994;1274;59780;-67
2021/11/21 05:31:52;;;;;;;39.70;17.00;;;;;;;3.65;88.89;97429.70;108052;1271;59714;-67
2021/11/21 05:34:22;;;;;;;23.10;12.20;;;;;;;3.66;89.00;97432.23;107966;1275;71530;-67
2021/11/21 05:36:52;;;;;;;21.90;10.70;;;;;;;3.68;89.15;97425.79;107938;1274;68425;-67
2021/11/21 05:39:21;;;;;;;23.10;13.10;;;;;;;3.69;89.26;97426.78;108024;1272;69477;-67
2021/11/21 05:41:50;;;;;;;27.40;12.50;;;;;;;3.69;89.43;97424.35;108017;1272;59778;-68
2021/11/21 05:44:20;;;;;;;14.10;8.90;;;;;;;3.70;89.56;97424.69;107960;1275;59732;-67
2021/11/21 05:46:49;;;;;;;26.60;13.20;;;;;;;3.70;89.47;97421.05;107852;1275;71625;-66
2021/11/21 05:49:18;;;;;;;14.90;9.40;;;;;;;3.70;89.19;97422.44;108018;1272;68671;-67
2021/11/21 05:51:48;;;;;;;;;;;;;;;3.69;89.21;97419.34;108072;1271;68607;-67
2021/11/21 05:54:17;;;;;;;23.10;12.40;;;;;;;3.70;89.41;97421.07;107995;1272;59722;-66
2021/11/21 05:56:46;;;;;;;22.90;10.70;;;;;;;3.70;89.37;97424.14;108029;1272;59706;-66
2021/11/21 05:59:15;;;;;;;51.40;21.60;;;;;;;3.72;89.30;97425.79;108023;1271;71548;-66
2021/11/21 06:01:44;;;;;;;40.60;18.20;;;;;;;3.71;88.93;97428.92;108051;1272;69605;-68
2021/11/21 06:04:13;;;;;;;52.90;21.70;;;;;;;3.71;88.75;97429.09;108002;1273;68894;-67
2021/11/21 06:06:42;;;;;;;45.50;20.80;;;;;;;3.71;88.40;97431.70;107991;1275;59757;-67
2021/11/21 06:09:13;;;;;;;50.10;22.40;;;;;;;3.71;88.26;97428.90;108138;1272;59672;-67
2021/11/21 06:11:42;;;;;;;88.50;23.10;;;;;;;3.70;88.08;97429.34;107950;1275;71000;-67
2021/11/21 06:14:10;;;;;;;94.80;25.50;;;;;;;3.70;88.20;97427.09;108028;1274;68592;-67
2021/11/21 06:16:40;;;;;;;208.70;32.30;;;;;;;3.68;88.36;97428.02;107617;1273;503848;-67
2021/11/21 06:19:10;;;;;;;;;;;;;;;3.65;88.45;97421.95;108086;1272;60125;-66
2021/11/21 06:21:40;;;;;;;178.90;30.90;;;;;;;3.65;88.62;97421.42;107918;1273;59774;-67
2021/11/21 06:24:09;;;;;;;57.90;22.20;;;;;;;3.66;88.58;97426.75;107969;1275;71488;-67
2021/11/21 06:26:38;;;;;;;95.40;25.30;;;;;;;3.67;88.73;97427.38;107887;1274;68700;-67
2021/11/21 06:29:07;;;;;;;44.70;17.00;;;;;;;3.64;89.18;97423.73;108078;1271;69407;-67
2021/11/21 06:31:36;;;;;;;63.50;22.60;;;;;;;3.66;89.31;97423.80;108052;1272;60153;-66
2021/11/21 06:34:05;;;;;;;24.40;14.80;;;;;;;3.65;89.02;97424.89;107969;1275;59754;-67
2021/11/21 06:36:36;;;;;;;26.00;12.30;;;;;;;3.65;89.11;97422.46;108071;1272;71604;-67
2021/11/21 06:39:05;;;;;;;38.00;17.20;;;;;;;3.68;89.06;97422.69;108001;1272;66864;-67
2021/11/21 06:41:35;;;;;;;92.40;20.90;;;;;;;3.69;89.00;97422.46;107966;1275;69496;-68
2021/11/21 06:44:06;;;;;;;20.80;12.20;;;;;;;3.71;89.07;97419.10;107953;1275;60125;-69
2021/11/21 06:46:36;;;;;;;31.50;13.40;;;;;;;3.74;89.01;97421.36;108048;1273;59728;-68
2021/11/21 06:49:07;;;;;;;26.80;15.90;;;;;;;3.80;88.89;97414.19;107981;1274;71572;-67
2021/11/21 06:51:42;;;;;;;25.30;15.30;;;;;;;3.83;88.81;97415.95;108014;1275;68030;-67
2021/11/21 06:54:12;;;;;;;110.00;22.40;;;;;;;3.81;88.80;97418.64;108078;1272;69535;-67
2021/11/21 06:56:43;;;;;;;28.50;15.60;;;;;;;3.79;89.00;97418.38;108090;1272;59748;-66
2021/11/21 06:59:12;;;;;;;26.00;14.90;;;;;;;3.77;89.06;97418.65;108013;1275;59728;-67
2021/11/21 07:01:41;;;;;;;28.90;17.50;;;;;;;3.79;89.14;97411.34;108061;1272;71599;-68
2021/11/21 07:04:10;;;;;;;74.80;22.60;;;;;;;3.77;89.15;97410.19;107960;1276;69031;-67
2021/11/21 07:06:42;;;;;;;37.10;17.40;;;;;;;3.71;89.12;97409.80;108013;1275;69421;-68
2021/11/21 07:09:14;;;;;;;57.00;18.80;;;;;;;3.72;89.38;97415.30;108042;1272;59787;-66
2021/11/21 07:11:45;;;;;;;30.60;13.50;;;;;;;3.75;89.36;97419.25;108020;1272;59782;-67
2021/11/21 07:14:17;;;;;;;51.20;20.70;;;;;;;3.76;89.37;97416.62;108075;1274;70774;-67
2021/11/21 07:16:48;;;;;;;35.50;17.00;;;;;;;3.77;89.38;97417.94;108046;1274;67627;-66
2021/11/21 07:19:17;;;;;;;38.10;17.70;;;;;;;3.79;89.55;97418.71;108032;1271;68444;-67
2021/11/21 07:21:47;;;;;;;25.70;12.90;;;;;;;3.83;89.45;97420.94;107950;1273;59716;-67
2021/11/21 07:24:16;;;;;;;22.90;11.50;;;;;;;3.89;89.63;97419.33;107916;1272;59764;-66
2021/11/21 07:26:46;;;;;;;37.70;19.90;;;;;;;3.93;89.67;97420.84;107967;1275;71490;-67
2021/11/21 07:29:15;;;;;;;49.00;22.30;;;;;;;3.96;89.55;97417.42;108097;1272;68668;-67
2021/11/21 07:31:44;;;;;;;59.90;23.20;;;;;;;3.99;89.52;97415.05;107944;1272;69490;-66
2021/11/21 07:34:13;;;;;;;31.50;17.10;;;;;;;4.01;89.34;97416.33;107978;1272;59786;-68
2021/11/21 07:36:41;;;;;;;31.20;16.20;;;;;;;4.04;89.14;97414.66;107991;1275;59722;-67
2021/11/21 07:39:10;;;;;;;53.60;23.00;;;;;;;4.08;89.27;97406.02;107971;1275;70850;-67
2021/11/21 07:41:39;;;;;;;24.90;13.50;;;;;;;4.11;88.97;97399.48;108014;1275;68984;-67
2021/11/21 07:44:14;;;;;;;104.80;27.10;;;;;;;4.13;88.78;97398.03;108070;1272;68818;-67
2021/11/21 07:46:42;;;;;;;221.00;33.50;;;;;;;4.13;88.76;97396.83;107948;1274;60169;-67
2021/11/21 07:49:12;;;;;;;312.00;37.80;;;;;;;4.08;88.64;97395.48;107971;1274;60060;-67
2021/11/21 07:51:41;;;;;;;141.00;30.10;;;;;;;4.00;88.57;97395.00;108037;1274;71556;-67
2021/11/21 07:54:11;;;;;;;69.20;22.90;;;;;;;3.88;88.86;97395.23;108027;1275;69035;-67
2021/11/21 07:56:40;;;;;;;27.90;12.50;;;;;;;3.83;89.28;97388.02;107853;1276;69424;-68
2021/11/21 07:59:10;;;;;;;33.80;16.20;;;;;;;3.91;89.71;97382.16;108020;1275;59792;-68
2021/11/21 08:01:39;;;;;;;36.70;17.30;;;;;;;4.00;89.78;97376.03;107972;1276;59763;-68
2021/11/21 08:04:10;;;;;;;54.00;22.60;;;;;;;4.09;89.59;97369.25;108014;1276;72987;-68
2021/11/21 08:06:39;;;;;;;38.70;18.90;;;;;;;4.15;89.25;97372.23;108093;1272;67814;-68
2021/11/21 08:09:08;;;;;;;87.30;24.80;;;;;;;4.22;89.09;97368.30;107905;1274;68671;-68
2021/11/21 08:11:37;;;;;;;57.00;21.70;;;;;;;4.26;88.80;97366.71;108045;1272;59760;-68
2021/11/21 08:14:05;;;;;;;52.30;23.40;;;;;;;4.27;88.70;97363.03;107995;1272;59703;-69
2021/11/21 08:16:34;;;;;;;68.10;22.70;;;;;;;4.26;88.44;97361.85;108025;1275;72127;-65
2021/11/21 08:19:04;;;;;;;48.90;22.10;;;;;;;4.26;88.49;97366.33;107921;1276;68589;-67
2021/11/21 08:21:33;;;;;;;50.10;21.70;;;;;;;4.30;88.43;97367.70;107938;1276;68686;-68
2021/11/21 08:24:02;;;;;;;49.10;23.60;;;;;;;4.32;88.18;97365.52;107953;1275;59776;-67
2021/11/21 08:26:31;;;;;;;67.40;21.20;;;;;;;4.31;88.21;97370.77;108052;1272;59715;-67
2021/11/21 08:29:00;;;;;;;29.60;17.30;;;;;;;4.32;88.27;97365.89;108048;1275;71500;-67
2021/11/21 08:31:50;;;;;;;63.50;24.40;;;;;;;4.35;88.26;97367.64;107965;1275;68431;-67
2021/11/21 08:34:20;;;;;;;90.20;24.90;;;;;;;4.38;88.17;97362.18;108027;1275;69399;-68
2021/11/21 08:36:52;;;;;;;28.00;14.30;;;;;;;4.39;88.19;97362.29;107918;1275;59719;-68
2021/11/21 08:39:21;;;;;;;35.40;16.80;;;;;;;4.42;88.48;97364.69;108071;1272;59709;-67
2021/11/21 08:41:52;;;;;;;33.80;16.30;;;;;;;4.48;88.21;97368.03;108109;1272;70989;-67
2021/11/21 08:44:22;;;;;;;35.30;19.30;;;;;;;4.55;88.01;97363.17;108020;1275;68621;-69
2021/11/21 08:46:52;;;;;;;37.50;19.10;;;;;;;4.60;87.81;97363.11;107932;1276;68939;-67
2021/11/21 08:49:21;;;;;;;40.50;20.80;;;;;;;4.65;87.61;97367.02;108029;1275;59802;-67
2021/11/21 08:51:50;;;;;;;42.30;20.60;;;;;;;4.66;87.36;97366.95;108108;1272;59674;-67
2021/11/21 08:54:19;;;;;;;32.20;16.80;;;;;;;4.69;87.45;97364.39;108150;1273;71401;-68
2021/11/21 08:56:49;;;;;;;30.40;17.90;;;;;;;4.78;87.40;97365.01;108129;1272;68577;-67
2021/11/21 08:59:20;;;;;;;17.00;9.50;;;;;;;4.86;87.43;97362.36;107989;1272;69458;-67
2021/11/21 09:01:49;;;;;;;;;;;;;;;4.95;87.45;97361.53;107898;1276;59776;-67
2021/11/21 09:04:18;;;;;;;34.80;20.40;;;;;;;5.03;87.28;97359.57;108161;1275;59725;-67
2021/11/21 09:06:47;;;;;;;35.70;21.10;;;;;;;5.07;86.70;97364.54;108096;1272;71551;-67
2021/11/21 09:09:16;;;;;;;31.80;16.90;;;;;;;5.08;86.50;97363.98;108003;1275;66886;-68
2021/11/21 09:11:45;;;;;;;24.70;13.40;;;;;;;5.10;86.25;97358.54;108019;1274;68858;-67
2021/11/21 09:14:14;;;;;;;29.10;15.50;;;;;;;5.14;86.21;97359.03;107997;1272;59776;-67
2021/11/21 09:16:45;;;;;;;27.00;13.80;;;;;;;5.22;86.41;97356.37;108044;1275;60092;-68
2021/11/21 09:19:14;;;;;;;34.00;18.40;;;;;;;5.28;86.00;97354.14;107971;1272;70991;-68
2021/11/21 09:21:43;;;;;;;29.30;14.90;;;;;;;5.28;85.69;97349.48;108085;1273;68443;-67
2021/11/21 09:24:12;;;;;;;25.20;12.80;;;;;;;5.34;85.73;97349.34;107927;1273;69559;-68
2021/11/21 09:26:41;;;;;;;23.90;14.40;;;;;;;5.43;85.84;97345.56;108017;1276;59796;-67
2021/11/21 09:29:10;;;;;;;30.20;18.50;;;;;;;5.52;85.56;97343.88;108079;1272;59750;-68
2021/11/21 09:31:39;;;;;;;29.30;17.30;;;;;;;5.60;85.28;97342.55;107996;1272;70592;-68
2021/11/21 09:34:08;;;;;;;35.00;19.70;;;;;;;5.66;84.97;97341.41;108044;1272;68546;-68
2021/11/21 09:36:37;;;;;;;34.00;19.70;;;;;;;5.72;84.44;97336.96;108133;1275;69258;-67
2021/11/21 09:39:06;;;;;;;38.90;20.80;;;;;;;5.77;84.04;97328.52;108068;1272;59702;-68
2021/11/21 09:41:34;;;;;;;35.30;19.20;;;;;;;5.81;83.71;97326.73;107901;1275;59709;-68
2021/11/21 09:44:05;;;;;;;23.40;13.10;;;;;;;5.86;83.14;97321.60;108042;1272;71612;-67
2021/11/21 09:46:37;;;;;;;26.50;16.00;;;;;;;5.90;82.68;97318.50;107975;1275;67259;-68
2021/11/21 09:49:06;;;;;;;22.50;13.50;;;;;;;6.01;83.00;97313.91;108094;1272;68228;-67
2021/11/21 09:51:35;;;;;;;20.00;11.00;;;;;;;6.13;82.93;97305.45;107907;1276;59787;-69
2021/11/21 09:54:04;;;;;;;32.90;19.10;;;;;;;6.28;82.16;97303.25;108007;1271;59723;-67
2021/11/21 09:56:33;;;;;;;23.90;13.90;;;;;;;6.30;81.13;97301.05;108003;1272;70551;-67
2021/11/21 09:59:03;;;;;;;23.10;12.60;;;;;;;6.41;81.37;97296.92;107876;1274;68594;-67
2021/11/21 10:01:42;;;;;;;22.60;13.90;;;;;;;6.59;81.34;97293.48;107926;1272;68647;-69
2021/11/21 10:04:13;;;;;;;25.30;14.90;;;;;;;6.80;81.32;97289.42;107985;1276;59725;-68
2021/11/21 10:06:46;;;;;;;20.10;11.50;;;;;;;7.05;80.69;97281.67;108002;1271;59739;-67
2021/11/21 10:09:19;;;;;;;23.80;12.60;;;;;;;7.33;80.35;97273.55;108061;1272;69765;-68
2021/11/21 10:11:58;;;;;;;20.20;12.10;;;;;;;7.57;78.71;97268.44;108054;1272;68211;-67
2021/11/21 10:14:28;;;;;;;17.60;10.30;;;;;;;7.72;77.45;97258.83;108077;1272;69626;-68
2021/11/21 10:16:57;;;;;;;21.00;13.70;;;;;;;7.80;76.58;97255.35;108005;1275;59735;-68
2021/11/21 10:19:26;;;;;;;29.50;17.80;;;;;;;7.87;77.65;97257.48;108116;1272;59707;-68
2021/11/21 10:21:58;;;;;;;23.00;14.80;;;;;;;7.90;77.55;97256.27;108111;1272;70744;-65
2021/11/21 10:24:31;;;;;;;27.90;17.10;;;;;;;7.92;77.23;97258.03;107949;1275;69045;-67
2021/11/21 10:27:03;;;;;;;29.50;18.40;;;;;;;7.86;76.95;97254.81;107998;1275;68639;-68
2021/11/21 10:29:39;;;;;;;26.70;15.50;;;;;;;7.64;75.69;97253.11;107995;1275;59787;-68
2021/11/21 10:32:16;;;;;;;27.20;17.40;;;;;;;7.46;75.66;97252.80;107980;1272;59742;-67
2021/11/21 10:34:54;;;;;;;25.40;15.30;;;;;;;7.37;76.02;97255.30;108054;1271;69982;-67
2021/11/21 10:37:33;;;;;;;26.90;16.30;;;;;;;7.31;75.91;97255.31;108060;1272;67723;-66
2021/11/21 10:40:11;;;;;;;27.40;17.40;;;;;;;7.25;76.03;97250.67;108053;1272;69282;-67
2021/11/21 10:42:43;;;;;;;29.90;18.80;;;;;;;7.16;75.71;97252.77;107925;1272;59802;-68
2021/11/21 10:45:19;;;;;;;30.70;17.30;;;;;;;7.08;76.13;97248.56;107860;1277;59782;-68
2021/11/21 10:47:50;;;;;;;32.70;18.90;;;;;;;6.96;76.24;97243.27;107996;1275;70830;-68
2021/11/21 10:50:30;;;;;;;27.20;16.60;;;;;;;6.81;76.66;97239.46;108151;1271;68179;-67
2021/11/21 10:53:02;;;;;;;30.40;18.70;;;;;;;6.81;76.70;97236.02;108050;1273;70000;-68
2021/11/21 10:55:31;;;;;;;31.50;18.80;;;;;;;6.75;76.69;97234.35;108070;1272;59709;-67
2021/11/21 10:58:18;;;;;;;27.30;17.70;;;;;;;6.66;76.84;97236.22;107973;1275;59713;-66
2021/11/21 11:00:59;;;;;;;46.50;27.60;;;;;;;6.63;77.32;97233.32;107981;1275;71550;-67
2021/11/21 11:03:28;;;;;;;29.70;18.30;;;;;;;6.59;77.77;97228.87;107960;1277;67839;-67
2021/11/21 11:05:57;;;;;;;27.00;17.70;;;;;;;6.55;77.90;97227.35;107920;1276;69727;-68
2021/11/21 11:08:31;;;;;;;24.70;14.90;;;;;;;6.63;78.57;97227.06;107966;1274;59780;-68
2021/11/21 11:11:00;;;;;;;28.80;18.70;;;;;;;6.80;78.77;97227.42;108125;1272;59776;-67
2021/11/21 11:13:30;;;;;;;30.70;17.20;;;;;;;6.96;79.04;97224.23;107945;1275;70581;-67
2021/11/21 11:15:59;;;;;;;34.20;21.30;;;;;;;7.05;79.39;97216.50;108013;1272;68636;-67
2021/11/21 11:18:29;;;;;;;28.30;17.30;;;;;;;7.16;79.49;97214.27;107928;1275;69283;-67
2021/11/21 11:20:58;;;;;;;34.60;21.00;;;;;;;7.25;79.12;97209.77;108009;1275;59776;-67
2021/11/21 11:23:28;;;;;;;25.50;15.30;;;;;;;7.28;78.82;97209.76;108112;1276;59770;-67
2021/11/21 11:26:04;;;;;;;39.10;22.70;;;;;;;7.29;78.62;97209.14;107911;1275;71540;-68
2021/11/21 11:28:38;;;;;;;38.00;22.30;;;;;;;7.32;78.51;97206.75;107837;1276;68725;-66
2021/11/21 11:31:31;;;;;;;24.30;13.50;;;;;;;7.33;78.54;97200.05;107938;1272;68456;-66
2021/11/21 11:34:01;;;;;;;35.50;21.00;;;;;;;7.40;78.63;97194.42;107829;1276;59785;-67